^^
Station Historical Data
Daily Summary for May 27, 2017 Units:  English    Metric   Both
« Previous Day
Next Day »
Daily Weekly Monthly Yearly Custom
  High: Low: Average:
Temperature: 70.9 °F 54.2 °F 63.9 °F
Dew Point: 58.8 °F 51.8 °F 55.7 °F
Humidity: 92% 60% 76%
Wind Speed: 3.0mph 0.0mph 0.5mph
Wind Gust: 8.0mph - -
Wind- - WSW
Pressure: 29.94 in 29.81 in -
Precipitation: 0.00 in    
Historical Graphs
 
 
Tabular Data for May 27, 2017
Time Temperature Dew Point Pressure Wind Wind Speed Wind Gust Humidity Rainfall Rate (Hourly) Conditions
00:00 62.3 °F 54.2 °F 29.81 in South 1.0 mph 4.0 mph 75% 0.00 in RA
00:15 61.6 °F 54.7 °F 29.81 in SSW 2.0 mph 5.0 mph 78% 0.00 in FEW
00:30 61.2 °F 54.6 °F 29.81 in SSW 1.0 mph 4.0 mph 79% 0.00 in FEW
00:45 61.1 °F 54.5 °F 29.81 in Calm   6.0 mph 79% 0.00 in FEW
01:00 60.9 °F 54.7 °F 29.81 in South 1.0 mph 5.0 mph 80% 0.00 in FEW
01:15 60.7 °F 54.4 °F 29.82 in SSW 2.0 mph 5.0 mph 80% 0.00 in FEW
01:30 60.3 °F 54.5 °F 29.82 in Calm   4.0 mph 81% 0.00 in FEW
01:45 60.1 °F 54.2 °F 29.82 in Calm   4.0 mph 81% 0.00 in FEW
02:00 59.9 °F 54.1 °F 29.82 in Calm   3.0 mph 81% 0.00 in FEW
02:15 59.3 °F 53.8 °F 29.82 in Calm   1.0 mph 82% 0.00 in CLR
02:30 59.1 °F 53.6 °F 29.82 in Calm   4.0 mph 82% 0.00 in CLR
02:45 58.8 °F 53.6 °F 29.82 in Calm   3.0 mph 83% 0.00 in CLR
03:00 58.5 °F 53.7 °F 29.82 in Calm   4.0 mph 84% 0.00 in CLR
03:15 58.2 °F 53.4 °F 29.83 in Calm   2.0 mph 84% 0.00 in CLR
03:30 58.1 °F 53.6 °F 29.83 in Calm   2.0 mph 85% 0.00 in CLR
03:45 56.8 °F 52.7 °F 29.83 in Calm   1.0 mph 86% 0.00 in CLR
04:00 55.8 °F 52.3 °F 29.83 in Calm   1.0 mph 88% 0.00 in CLR
04:15 54.7 °F 51.8 °F 29.84 in Calm     90% 0.00 in CLR
04:30 54.2 °F 51.9 °F 29.84 in Calm     92% 0.00 in CLR
04:45 55.3 °F 52.7 °F 29.84 in Calm   1.0 mph 91% 0.00 in CLR
05:00 55.4 °F 53.1 °F 29.85 in Calm     92% 0.00 in CLR
05:15 55.5 °F 52.9 °F 29.85 in Calm   1.0 mph 91% 0.00 in FEW
05:30 55.1 °F 52.8 °F 29.86 in Calm   1.0 mph 92% 0.00 in FEW
05:45 56.0 °F 53.4 °F 29.86 in Calm   1.0 mph 91% 0.00 in FEW
06:00 56.7 °F 53.8 °F 29.87 in Calm   2.0 mph 90% 0.00 in FEW
06:15 57.4 °F 53.9 °F 29.88 in Calm   1.0 mph 88% 0.00 in SCT
06:30 57.6 °F 54.4 °F 29.88 in Calm     89% 0.00 in SCT
06:45 58.1 °F 54.9 °F 29.88 in Calm     89% 0.00 in SCT
07:00 59.1 °F 55.0 °F 29.88 in NW 1.0 mph 2.0 mph 86% 0.00 in SCT
07:15 59.3 °F 54.5 °F 29.88 in Calm   4.0 mph 84% 0.00 in BKN
07:30 59.4 °F 54.6 °F 29.88 in Calm   2.0 mph 84% 0.00 in BKN
07:45 60.5 °F 54.6 °F 29.88 in NNE 1.0 mph 6.0 mph 81% 0.00 in BKN
08:00 61.5 °F 55.3 °F 29.88 in NW 1.0 mph 5.0 mph 80% 0.00 in BKN
08:15 62.9 °F 55.2 °F 29.88 in North 1.0 mph 6.0 mph 76% 0.00 in FEW
08:30 62.4 °F 54.7 °F 29.88 in NNW 1.0 mph 6.0 mph 76% 0.00 in FEW
08:45 63.5 °F 55.8 °F 29.88 in Calm   5.0 mph 76% 0.00 in FEW
09:00 64.4 °F 55.9 °F 29.89 in WNW 1.0 mph 4.0 mph 74% 0.00 in FEW
09:15 64.7 °F 55.9 °F 29.89 in WNW 2.0 mph 6.0 mph 73% 0.00 in FEW
09:30 65.4 °F 56.1 °F 29.89 in NNE 2.0 mph 4.0 mph 72% 0.00 in FEW
09:45 65.4 °F 56.6 °F 29.89 in North 1.0 mph 6.0 mph 73% 0.00 in FEW
10:00 66.6 °F 56.9 °F 29.88 in Calm   5.0 mph 71% 0.00 in FEW
10:15 66.5 °F 56.0 °F 29.88 in NW 1.0 mph 5.0 mph 69% 0.00 in SCT
10:30 67.7 °F 55.5 °F 29.88 in NNW 3.0 mph 7.0 mph 65% 0.00 in SCT
10:45 68.2 °F 56.4 °F 29.88 in NNW 2.0 mph 7.0 mph 66% 0.00 in SCT
11:00 68.0 °F 56.6 °F 29.88 in North 2.0 mph 8.0 mph 67% 0.00 in SCT
11:15 68.5 °F 56.7 °F 29.88 in NNW 1.0 mph 5.0 mph 66% 0.00 in SCT
11:30 69.2 °F 56.5 °F 29.88 in NW 2.0 mph 6.0 mph 64% 0.00 in SCT
11:45 70.2 °F 57.0 °F 29.87 in West 1.0 mph 5.0 mph 63% 0.00 in SCT
12:00 70.2 °F 57.0 °F 29.88 in West 2.0 mph 6.0 mph 63% 0.00 in SCT
12:15 68.7 °F 56.8 °F 29.87 in Calm   3.0 mph 66% 0.00 in BKN
12:30 69.3 °F 57.0 °F 29.87 in SW 1.0 mph 3.0 mph 65% 0.00 in BKN
12:45 69.7 °F 56.5 °F 29.87 in Calm   3.0 mph 63% 0.00 in BKN
13:00 70.0 °F 55.9 °F 29.87 in Calm   4.0 mph 61% 0.00 in BKN
13:15 70.9 °F 56.8 °F 29.87 in South 1.0 mph 4.0 mph 61% 0.00 in BKN
13:30 70.2 °F 55.7 °F 29.88 in SW 1.0 mph 4.0 mph 60% 0.00 in BKN
13:45 70.5 °F 55.9 °F 29.87 in Calm   3.0 mph 60% 0.00 in BKN
14:00 70.4 °F 55.8 °F 29.88 in Calm   3.0 mph 60% 0.00 in BKN
14:15 69.9 °F 56.3 °F 29.88 in Calm   3.0 mph 62% 0.00 in BKN
14:30 69.1 °F 56.0 °F 29.88 in WSW 1.0 mph 4.0 mph 63% 0.00 in BKN
14:45 68.5 °F 56.3 °F 29.88 in Calm   2.0 mph 65% 0.00 in BKN
15:00 68.4 °F 55.7 °F 29.88 in SW 1.0 mph 5.0 mph 64% 0.00 in BKN
15:15 68.6 °F 56.4 °F 29.88 in Calm   3.0 mph 65% 0.00 in BKN
15:30 68.8 °F 56.1 °F 29.88 in SW 1.0 mph 3.0 mph 64% 0.00 in BKN
15:45 68.8 °F 56.1 °F 29.87 in Calm   3.0 mph 64% 0.00 in BKN
16:00 69.0 °F 56.7 °F 29.87 in SW 1.0 mph 3.0 mph 65% 0.00 in BKN
16:15 69.7 °F 56.5 °F 29.88 in WSW 1.0 mph 3.0 mph 63% 0.00 in BKN
16:30 69.9 °F 57.2 °F 29.88 in Calm   3.0 mph 64% 0.00 in BKN
16:45 70.2 °F 57.5 °F 29.88 in Calm   1.0 mph 64% 0.00 in BKN
17:00 69.6 °F 56.4 °F 29.88 in Calm   1.0 mph 63% 0.00 in BKN
17:15 69.7 °F 57.0 °F 29.88 in Calm   1.0 mph 64% 0.00 in BKN
17:30 70.2 °F 57.4 °F 29.88 in Calm   1.0 mph 64% 0.00 in BKN
17:45 70.5 °F 56.4 °F 29.88 in Calm   1.0 mph 61% 0.00 in BKN
18:00 70.3 °F 58.8 °F 29.88 in Calm     67% 0.00 in BKN
18:15 69.7 °F 57.9 °F 29.88 in Calm   1.0 mph 66% 0.00 in BKN
18:30 68.9 °F 57.9 °F 29.88 in Calm   1.0 mph 68% 0.00 in BKN
18:45 68.4 °F 58.2 °F 29.89 in Calm   1.0 mph 70% 0.00 in BKN
19:00 67.3 °F 57.5 °F 29.89 in Calm   3.0 mph 71% 0.00 in BKN
19:15 66.5 °F 57.9 °F 29.89 in Calm   2.0 mph 74% 0.00 in BKN
19:30 66.2 °F 58.4 °F 29.89 in Calm   1.0 mph 76% 0.00 in BKN
19:45 65.7 °F 58.3 °F 29.89 in Calm   2.0 mph 77% 0.00 in BKN
20:15 64.7 °F 57.7 °F 29.90 in Calm   2.0 mph 78% 0.00 in BKN
20:30 64.2 °F 57.5 °F 29.90 in Calm   2.0 mph 79% 0.00 in BKN
20:45 63.8 °F 57.5 °F 29.91 in Calm   4.0 mph 80% 0.00 in BKN
21:00 63.4 °F 57.1 °F 29.91 in NNW 1.0 mph 3.0 mph 80% 0.00 in BKN
21:15 63.1 °F 56.8 °F 29.92 in Calm   2.0 mph 80% 0.00 in OVC
21:30 62.8 °F 56.9 °F 29.92 in SW 1.0 mph 3.0 mph 81% 0.00 in OVC
21:45 62.5 °F 56.9 °F 29.92 in NNW 1.0 mph 3.0 mph 82% 0.00 in OVC
22:00 62.1 °F 56.8 °F 29.93 in SW 1.0 mph 4.0 mph 83% 0.00 in OVC
22:15 61.6 °F 56.4 °F 29.93 in Calm   4.0 mph 83% 0.00 in OVC
22:30 61.3 °F 56.4 °F 29.93 in SSW 1.0 mph 5.0 mph 84% 0.00 in OVC
22:45 60.9 °F 56.4 °F 29.93 in WSW 1.0 mph 4.0 mph 85% 0.00 in OVC
23:00 60.7 °F 56.2 °F 29.93 in Calm   4.0 mph 85% 0.00 in OVC
23:15 60.5 °F 56.3 °F 29.93 in Calm   2.0 mph 86% 0.00 in OVC
23:30 60.3 °F 56.1 °F 29.93 in Calm   2.0 mph 86% 0.00 in OVC
23:45 60.1 °F 56.3 °F 29.94 in Calm   2.0 mph 87% 0.00 in OVC
TarryTown NY Weather
Compliments of Weather Underground - 1.5 mb